sensor_id;sensor_type;location;lat;lon;timestamp;P1;durP1;ratioP1;P2;durP2;ratioP2
40701;SDS011;26387;50.114;8.662;2022-10-16T00:00:35;7.07;;;4.55;;
40701;SDS011;26387;50.114;8.662;2022-10-16T00:03:02;12.27;;;5.00;;
40701;SDS011;26387;50.114;8.662;2022-10-16T00:05:28;10.02;;;4.75;;
40701;SDS011;26387;50.114;8.662;2022-10-16T00:07:54;8.18;;;4.20;;
40701;SDS011;26387;50.114;8.662;2022-10-16T00:10:20;12.40;;;4.97;;
40701;SDS011;26387;50.114;8.662;2022-10-16T00:12:46;8.23;;;5.03;;
40701;SDS011;26387;50.114;8.662;2022-10-16T00:15:12;11.25;;;4.93;;
40701;SDS011;26387;50.114;8.662;2022-10-16T00:17:38;7.88;;;5.20;;
40701;SDS011;26387;50.114;8.662;2022-10-16T00:20:04;11.25;;;4.63;;
40701;SDS011;26387;50.114;8.662;2022-10-16T00:22:31;6.90;;;4.25;;
40701;SDS011;26387;50.114;8.662;2022-10-16T00:24:57;12.00;;;5.57;;
40701;SDS011;26387;50.114;8.662;2022-10-16T00:27:22;7.25;;;4.85;;
40701;SDS011;26387;50.114;8.662;2022-10-16T00:29:49;7.68;;;4.93;;
40701;SDS011;26387;50.114;8.662;2022-10-16T00:32:16;8.18;;;5.45;;
40701;SDS011;26387;50.114;8.662;2022-10-16T00:34:42;9.68;;;5.10;;
40701;SDS011;26387;50.114;8.662;2022-10-16T00:37:08;7.45;;;4.78;;
40701;SDS011;26387;50.114;8.662;2022-10-16T00:39:34;9.10;;;4.90;;
40701;SDS011;26387;50.114;8.662;2022-10-16T00:42:00;11.25;;;5.07;;
40701;SDS011;26387;50.114;8.662;2022-10-16T00:47:11;9.93;;;4.47;;
40701;SDS011;26387;50.114;8.662;2022-10-16T00:49:38;6.80;;;4.22;;
40701;SDS011;26387;50.114;8.662;2022-10-16T00:52:04;9.60;;;4.30;;
40701;SDS011;26387;50.114;8.662;2022-10-16T00:54:31;7.43;;;4.00;;
40701;SDS011;26387;50.114;8.662;2022-10-16T00:56:58;7.50;;;4.38;;
40701;SDS011;26387;50.114;8.662;2022-10-16T00:59:30;6.30;;;3.92;;
40701;SDS011;26387;50.114;8.662;2022-10-16T01:01:57;7.22;;;3.92;;
40701;SDS011;26387;50.114;8.662;2022-10-16T01:04:23;7.53;;;3.90;;
40701;SDS011;26387;50.114;8.662;2022-10-16T01:07:01;8.63;;;3.63;;
40701;SDS011;26387;50.114;8.662;2022-10-16T01:09:37;8.18;;;3.72;;
40701;SDS011;26387;50.114;8.662;2022-10-16T01:14:36;9.85;;;3.72;;
40701;SDS011;26387;50.114;8.662;2022-10-16T01:17:06;9.57;;;3.45;;
40701;SDS011;26387;50.114;8.662;2022-10-16T01:22:08;7.07;;;3.60;;
40701;SDS011;26387;50.114;8.662;2022-10-16T01:24:41;7.50;;;3.25;;
40701;SDS011;26387;50.114;8.662;2022-10-16T01:29:58;6.75;;;3.60;;
40701;SDS011;26387;50.114;8.662;2022-10-16T01:32:28;6.22;;;3.55;;
40701;SDS011;26387;50.114;8.662;2022-10-16T01:37:39;6.38;;;3.00;;
40701;SDS011;26387;50.114;8.662;2022-10-16T01:40:10;7.57;;;3.05;;
40701;SDS011;26387;50.114;8.662;2022-10-16T01:42:41;6.15;;;3.03;;
40701;SDS011;26387;50.114;8.662;2022-10-16T01:45:08;6.38;;;3.20;;
40701;SDS011;26387;50.114;8.662;2022-10-16T01:47:36;4.40;;;2.72;;
40701;SDS011;26387;50.114;8.662;2022-10-16T01:50:03;4.47;;;2.85;;
40701;SDS011;26387;50.114;8.662;2022-10-16T01:52:30;8.23;;;2.58;;
40701;SDS011;26387;50.114;8.662;2022-10-16T01:54:57;5.57;;;2.50;;
40701;SDS011;26387;50.114;8.662;2022-10-16T01:57:26;4.55;;;2.40;;
40701;SDS011;26387;50.114;8.662;2022-10-16T01:59:54;4.20;;;2.38;;
40701;SDS011;26387;50.114;8.662;2022-10-16T02:02:21;6.55;;;2.38;;
40701;SDS011;26387;50.114;8.662;2022-10-16T02:05:11;5.53;;;2.30;;
40701;SDS011;26387;50.114;8.662;2022-10-16T02:07:34;5.80;;;2.58;;
40701;SDS011;26387;50.114;8.662;2022-10-16T02:10:00;2.33;;;1.65;;
40701;SDS011;26387;50.114;8.662;2022-10-16T02:12:30;3.72;;;1.98;;
40701;SDS011;26387;50.114;8.662;2022-10-16T02:14:57;5.10;;;1.90;;
40701;SDS011;26387;50.114;8.662;2022-10-16T02:17:24;4.60;;;2.00;;
40701;SDS011;26387;50.114;8.662;2022-10-16T02:19:50;3.80;;;1.77;;
40701;SDS011;26387;50.114;8.662;2022-10-16T02:22:19;6.55;;;1.88;;
40701;SDS011;26387;50.114;8.662;2022-10-16T02:24:55;3.20;;;1.50;;
40701;SDS011;26387;50.114;8.662;2022-10-16T02:29:49;3.88;;;1.80;;
40701;SDS011;26387;50.114;8.662;2022-10-16T02:32:19;3.15;;;1.60;;
40701;SDS011;26387;50.114;8.662;2022-10-16T02:34:47;2.90;;;1.38;;
40701;SDS011;26387;50.114;8.662;2022-10-16T02:37:14;2.00;;;1.45;;
40701;SDS011;26387;50.114;8.662;2022-10-16T02:39:41;1.88;;;1.38;;
40701;SDS011;26387;50.114;8.662;2022-10-16T02:42:14;5.03;;;1.30;;
40701;SDS011;26387;50.114;8.662;2022-10-16T02:44:40;5.57;;;1.50;;
40701;SDS011;26387;50.114;8.662;2022-10-16T02:47:06;2.40;;;1.38;;
40701;SDS011;26387;50.114;8.662;2022-10-16T02:49:32;3.72;;;1.35;;
40701;SDS011;26387;50.114;8.662;2022-10-16T02:51:58;2.80;;;1.10;;
40701;SDS011;26387;50.114;8.662;2022-10-16T02:54:24;9.43;;;1.50;;
40701;SDS011;26387;50.114;8.662;2022-10-16T02:56:50;3.65;;;1.10;;
40701;SDS011;26387;50.114;8.662;2022-10-16T02:59:16;4.78;;;1.20;;
40701;SDS011;26387;50.114;8.662;2022-10-16T03:01:43;3.75;;;1.33;;
40701;SDS011;26387;50.114;8.662;2022-10-16T03:04:09;1.92;;;1.20;;
40701;SDS011;26387;50.114;8.662;2022-10-16T03:06:34;1.48;;;1.05;;
40701;SDS011;26387;50.114;8.662;2022-10-16T03:09:00;1.92;;;1.27;;
40701;SDS011;26387;50.114;8.662;2022-10-16T03:11:26;2.33;;;1.35;;
40701;SDS011;26387;50.114;8.662;2022-10-16T03:13:53;4.57;;;1.30;;
40701;SDS011;26387;50.114;8.662;2022-10-16T03:16:19;2.08;;;0.93;;
40701;SDS011;26387;50.114;8.662;2022-10-16T03:18:47;5.25;;;1.10;;
40701;SDS011;26387;50.114;8.662;2022-10-16T03:21:14;2.75;;;1.00;;
40701;SDS011;26387;50.114;8.662;2022-10-16T03:23:40;2.42;;;1.15;;
40701;SDS011;26387;50.114;8.662;2022-10-16T03:26:06;4.25;;;1.20;;
40701;SDS011;26387;50.114;8.662;2022-10-16T03:28:32;2.70;;;1.33;;
40701;SDS011;26387;50.114;8.662;2022-10-16T03:30:58;3.30;;;1.10;;
40701;SDS011;26387;50.114;8.662;2022-10-16T03:33:24;2.45;;;1.05;;
40701;SDS011;26387;50.114;8.662;2022-10-16T03:35:53;3.08;;;0.88;;
40701;SDS011;26387;50.114;8.662;2022-10-16T03:38:20;3.40;;;1.10;;
40701;SDS011;26387;50.114;8.662;2022-10-16T03:40:46;6.43;;;1.20;;
40701;SDS011;26387;50.114;8.662;2022-10-16T03:43:12;2.55;;;1.02;;
40701;SDS011;26387;50.114;8.662;2022-10-16T03:45:38;4.28;;;0.93;;
40701;SDS011;26387;50.114;8.662;2022-10-16T03:48:04;2.75;;;0.90;;
40701;SDS011;26387;50.114;8.662;2022-10-16T03:50:30;3.67;;;1.10;;
40701;SDS011;26387;50.114;8.662;2022-10-16T03:52:56;4.65;;;1.20;;
40701;SDS011;26387;50.114;8.662;2022-10-16T03:55:22;3.50;;;1.02;;
40701;SDS011;26387;50.114;8.662;2022-10-16T03:57:48;5.78;;;1.30;;
40701;SDS011;26387;50.114;8.662;2022-10-16T04:00:14;3.63;;;1.45;;
40701;SDS011;26387;50.114;8.662;2022-10-16T04:02:40;5.47;;;1.05;;
40701;SDS011;26387;50.114;8.662;2022-10-16T04:05:06;3.42;;;1.35;;
40701;SDS011;26387;50.114;8.662;2022-10-16T04:07:32;2.28;;;1.20;;
40701;SDS011;26387;50.114;8.662;2022-10-16T04:09:58;2.25;;;1.15;;
40701;SDS011;26387;50.114;8.662;2022-10-16T04:12:25;2.05;;;1.08;;
40701;SDS011;26387;50.114;8.662;2022-10-16T04:14:51;4.18;;;1.13;;
40701;SDS011;26387;50.114;8.662;2022-10-16T04:17:17;2.92;;;1.30;;
40701;SDS011;26387;50.114;8.662;2022-10-16T04:19:43;4.75;;;1.00;;
40701;SDS011;26387;50.114;8.662;2022-10-16T04:22:09;3.83;;;1.33;;
40701;SDS011;26387;50.114;8.662;2022-10-16T04:24:35;1.98;;;1.05;;
40701;SDS011;26387;50.114;8.662;2022-10-16T04:27:01;3.22;;;1.00;;
40701;SDS011;26387;50.114;8.662;2022-10-16T04:29:27;5.72;;;1.48;;
40701;SDS011;26387;50.114;8.662;2022-10-16T04:31:53;1.58;;;1.20;;
40701;SDS011;26387;50.114;8.662;2022-10-16T04:34:19;4.95;;;1.40;;
40701;SDS011;26387;50.114;8.662;2022-10-16T04:36:46;4.05;;;1.38;;
40701;SDS011;26387;50.114;8.662;2022-10-16T04:39:13;2.42;;;1.15;;
40701;SDS011;26387;50.114;8.662;2022-10-16T04:41:39;2.88;;;1.50;;
40701;SDS011;26387;50.114;8.662;2022-10-16T04:44:05;5.55;;;1.40;;
40701;SDS011;26387;50.114;8.662;2022-10-16T04:46:31;8.43;;;1.75;;
40701;SDS011;26387;50.114;8.662;2022-10-16T04:48:57;3.05;;;1.23;;
40701;SDS011;26387;50.114;8.662;2022-10-16T04:51:23;4.53;;;1.33;;
40701;SDS011;26387;50.114;8.662;2022-10-16T04:53:50;4.15;;;1.15;;
40701;SDS011;26387;50.114;8.662;2022-10-16T04:56:16;2.45;;;1.33;;
40701;SDS011;26387;50.114;8.662;2022-10-16T04:58:42;2.25;;;1.30;;
40701;SDS011;26387;50.114;8.662;2022-10-16T05:01:08;4.60;;;1.40;;
40701;SDS011;26387;50.114;8.662;2022-10-16T05:03:34;5.55;;;1.40;;
40701;SDS011;26387;50.114;8.662;2022-10-16T05:06:00;4.40;;;1.40;;
40701;SDS011;26387;50.114;8.662;2022-10-16T05:08:26;3.75;;;1.38;;
40701;SDS011;26387;50.114;8.662;2022-10-16T05:10:52;4.50;;;1.20;;
40701;SDS011;26387;50.114;8.662;2022-10-16T05:13:18;2.33;;;1.33;;
40701;SDS011;26387;50.114;8.662;2022-10-16T05:15:47;5.15;;;1.63;;
40701;SDS011;26387;50.114;8.662;2022-10-16T05:18:13;2.47;;;1.10;;
40701;SDS011;26387;50.114;8.662;2022-10-16T05:20:40;5.35;;;1.30;;
40701;SDS011;26387;50.114;8.662;2022-10-16T05:23:06;4.00;;;1.45;;
40701;SDS011;26387;50.114;8.662;2022-10-16T05:25:32;2.47;;;1.17;;
40701;SDS011;26387;50.114;8.662;2022-10-16T05:27:58;5.07;;;1.75;;
40701;SDS011;26387;50.114;8.662;2022-10-16T05:30:24;3.28;;;1.08;;
40701;SDS011;26387;50.114;8.662;2022-10-16T05:32:50;5.18;;;1.33;;
40701;SDS011;26387;50.114;8.662;2022-10-16T05:35:17;4.95;;;1.40;;
40701;SDS011;26387;50.114;8.662;2022-10-16T05:37:43;3.50;;;1.23;;
40701;SDS011;26387;50.114;8.662;2022-10-16T05:40:09;4.97;;;1.20;;
40701;SDS011;26387;50.114;8.662;2022-10-16T05:42:35;10.02;;;1.70;;
40701;SDS011;26387;50.114;8.662;2022-10-16T05:45:02;6.13;;;1.83;;
40701;SDS011;26387;50.114;8.662;2022-10-16T05:47:28;3.67;;;1.58;;
40701;SDS011;26387;50.114;8.662;2022-10-16T05:49:54;3.90;;;1.42;;
40701;SDS011;26387;50.114;8.662;2022-10-16T05:52:20;3.13;;;1.50;;
40701;SDS011;26387;50.114;8.662;2022-10-16T05:54:46;3.83;;;1.45;;
40701;SDS011;26387;50.114;8.662;2022-10-16T05:57:12;2.63;;;1.52;;
40701;SDS011;26387;50.114;8.662;2022-10-16T05:59:38;3.95;;;1.80;;
40701;SDS011;26387;50.114;8.662;2022-10-16T06:02:05;3.15;;;1.50;;
40701;SDS011;26387;50.114;8.662;2022-10-16T06:04:31;2.95;;;1.70;;
40701;SDS011;26387;50.114;8.662;2022-10-16T06:07:00;4.78;;;1.40;;
40701;SDS011;26387;50.114;8.662;2022-10-16T06:09:26;2.35;;;1.15;;
40701;SDS011;26387;50.114;8.662;2022-10-16T06:11:52;4.60;;;1.48;;
40701;SDS011;26387;50.114;8.662;2022-10-16T06:14:18;3.30;;;1.50;;
40701;SDS011;26387;50.114;8.662;2022-10-16T06:16:44;3.25;;;1.83;;
40701;SDS011;26387;50.114;8.662;2022-10-16T06:19:10;6.80;;;1.60;;
40701;SDS011;26387;50.114;8.662;2022-10-16T06:21:36;3.58;;;1.38;;
40701;SDS011;26387;50.114;8.662;2022-10-16T06:24:02;4.97;;;1.90;;
40701;SDS011;26387;50.114;8.662;2022-10-16T06:26:28;8.32;;;1.63;;
40701;SDS011;26387;50.114;8.662;2022-10-16T06:28:55;2.72;;;1.60;;
40701;SDS011;26387;50.114;8.662;2022-10-16T06:31:21;4.43;;;1.80;;
40701;SDS011;26387;50.114;8.662;2022-10-16T06:33:50;5.95;;;1.95;;
40701;SDS011;26387;50.114;8.662;2022-10-16T06:36:16;4.15;;;1.88;;
40701;SDS011;26387;50.114;8.662;2022-10-16T06:38:43;4.13;;;2.13;;
40701;SDS011;26387;50.114;8.662;2022-10-16T06:41:13;2.95;;;1.80;;
40701;SDS011;26387;50.114;8.662;2022-10-16T06:43:39;7.85;;;2.47;;
40701;SDS011;26387;50.114;8.662;2022-10-16T06:46:06;5.05;;;2.05;;
40701;SDS011;26387;50.114;8.662;2022-10-16T06:48:35;3.70;;;2.35;;
40701;SDS011;26387;50.114;8.662;2022-10-16T06:51:12;5.55;;;2.58;;
40701;SDS011;26387;50.114;8.662;2022-10-16T06:53:39;7.30;;;2.65;;
40701;SDS011;26387;50.114;8.662;2022-10-16T06:56:06;6.32;;;3.13;;
40701;SDS011;26387;50.114;8.662;2022-10-16T06:58:32;7.18;;;3.38;;
40701;SDS011;26387;50.114;8.662;2022-10-16T07:00:58;7.22;;;4.55;;
40701;SDS011;26387;50.114;8.662;2022-10-16T07:03:24;10.20;;;5.97;;
40701;SDS011;26387;50.114;8.662;2022-10-16T07:05:50;10.60;;;5.50;;
40701;SDS011;26387;50.114;8.662;2022-10-16T07:08:16;7.82;;;5.03;;
40701;SDS011;26387;50.114;8.662;2022-10-16T07:10:42;10.60;;;6.22;;
40701;SDS011;26387;50.114;8.662;2022-10-16T07:13:08;9.13;;;5.55;;
40701;SDS011;26387;50.114;8.662;2022-10-16T07:15:38;10.90;;;6.15;;
40701;SDS011;26387;50.114;8.662;2022-10-16T07:18:04;11.50;;;6.35;;
40701;SDS011;26387;50.114;8.662;2022-10-16T07:20:29;7.90;;;5.72;;
40701;SDS011;26387;50.114;8.662;2022-10-16T07:22:55;8.90;;;5.55;;
40701;SDS011;26387;50.114;8.662;2022-10-16T07:25:21;8.15;;;5.68;;
40701;SDS011;26387;50.114;8.662;2022-10-16T07:27:47;12.63;;;5.05;;
40701;SDS011;26387;50.114;8.662;2022-10-16T07:30:13;7.07;;;5.38;;
40701;SDS011;26387;50.114;8.662;2022-10-16T07:32:39;10.95;;;5.05;;
40701;SDS011;26387;50.114;8.662;2022-10-16T07:35:05;8.20;;;4.30;;
40701;SDS011;26387;50.114;8.662;2022-10-16T07:37:31;9.45;;;4.72;;
40701;SDS011;26387;50.114;8.662;2022-10-16T07:39:57;11.90;;;4.22;;
40701;SDS011;26387;50.114;8.662;2022-10-16T07:42:23;8.77;;;3.83;;
40701;SDS011;26387;50.114;8.662;2022-10-16T07:44:49;6.25;;;3.97;;
40701;SDS011;26387;50.114;8.662;2022-10-16T07:47:15;6.65;;;3.42;;
40701;SDS011;26387;50.114;8.662;2022-10-16T07:49:41;4.93;;;3.40;;
40701;SDS011;26387;50.114;8.662;2022-10-16T07:52:07;6.78;;;3.65;;
40701;SDS011;26387;50.114;8.662;2022-10-16T07:54:33;8.05;;;3.92;;
40701;SDS011;26387;50.114;8.662;2022-10-16T07:56:59;13.40;;;3.30;;
40701;SDS011;26387;50.114;8.662;2022-10-16T07:59:25;6.95;;;3.90;;
40701;SDS011;26387;50.114;8.662;2022-10-16T08:01:51;6.28;;;3.20;;
40701;SDS011;26387;50.114;8.662;2022-10-16T08:04:17;6.97;;;3.40;;
40701;SDS011;26387;50.114;8.662;2022-10-16T08:06:43;5.75;;;3.53;;
40701;SDS011;26387;50.114;8.662;2022-10-16T08:09:09;6.18;;;3.60;;
40701;SDS011;26387;50.114;8.662;2022-10-16T08:11:35;4.20;;;3.13;;
40701;SDS011;26387;50.114;8.662;2022-10-16T08:14:01;9.55;;;3.88;;
40701;SDS011;26387;50.114;8.662;2022-10-16T08:16:27;7.30;;;3.05;;
40701;SDS011;26387;50.114;8.662;2022-10-16T08:18:53;6.22;;;3.60;;
40701;SDS011;26387;50.114;8.662;2022-10-16T08:21:21;7.13;;;3.38;;
40701;SDS011;26387;50.114;8.662;2022-10-16T08:23:48;8.70;;;3.50;;
40701;SDS011;26387;50.114;8.662;2022-10-16T08:26:14;7.55;;;3.42;;
40701;SDS011;26387;50.114;8.662;2022-10-16T08:28:40;8.05;;;3.50;;
40701;SDS011;26387;50.114;8.662;2022-10-16T08:31:07;8.60;;;3.88;;
40701;SDS011;26387;50.114;8.662;2022-10-16T08:33:33;7.15;;;4.03;;
40701;SDS011;26387;50.114;8.662;2022-10-16T08:36:00;8.43;;;4.18;;
40701;SDS011;26387;50.114;8.662;2022-10-16T08:38:26;8.65;;;4.20;;
40701;SDS011;26387;50.114;8.662;2022-10-16T08:40:52;8.02;;;4.32;;
40701;SDS011;26387;50.114;8.662;2022-10-16T08:43:29;6.97;;;4.40;;
40701;SDS011;26387;50.114;8.662;2022-10-16T08:48:47;10.93;;;4.50;;
40701;SDS011;26387;50.114;8.662;2022-10-16T08:51:18;9.68;;;4.80;;
40701;SDS011;26387;50.114;8.662;2022-10-16T08:53:55;9.15;;;4.97;;
40701;SDS011;26387;50.114;8.662;2022-10-16T08:56:22;7.80;;;4.68;;
40701;SDS011;26387;50.114;8.662;2022-10-16T08:58:48;7.72;;;4.78;;
40701;SDS011;26387;50.114;8.662;2022-10-16T09:01:16;7.97;;;5.00;;
40701;SDS011;26387;50.114;8.662;2022-10-16T09:06:31;7.40;;;4.43;;
40701;SDS011;26387;50.114;8.662;2022-10-16T09:17:06;8.50;;;5.00;;
40701;SDS011;26387;50.114;8.662;2022-10-16T09:19:38;6.05;;;4.47;;
40701;SDS011;26387;50.114;8.662;2022-10-16T09:22:11;8.73;;;4.43;;
40701;SDS011;26387;50.114;8.662;2022-10-16T09:24:38;7.60;;;4.80;;
40701;SDS011;26387;50.114;8.662;2022-10-16T09:27:04;12.35;;;6.45;;
40701;SDS011;26387;50.114;8.662;2022-10-16T09:29:30;8.93;;;7.22;;
40701;SDS011;26387;50.114;8.662;2022-10-16T09:31:56;9.38;;;7.60;;
40701;SDS011;26387;50.114;8.662;2022-10-16T09:34:35;11.55;;;7.32;;
40701;SDS011;26387;50.114;8.662;2022-10-16T09:37:12;13.93;;;7.57;;
40701;SDS011;26387;50.114;8.662;2022-10-16T09:39:49;10.95;;;6.95;;
40701;SDS011;26387;50.114;8.662;2022-10-16T09:42:30;10.40;;;6.28;;
40701;SDS011;26387;50.114;8.662;2022-10-16T09:44:57;9.70;;;6.97;;
40701;SDS011;26387;50.114;8.662;2022-10-16T09:47:23;10.20;;;6.50;;
40701;SDS011;26387;50.114;8.662;2022-10-16T09:50:19;9.57;;;5.80;;
40701;SDS011;26387;50.114;8.662;2022-10-16T09:52:37;10.75;;;6.68;;
40701;SDS011;26387;50.114;8.662;2022-10-16T09:55:13;14.25;;;7.82;;
40701;SDS011;26387;50.114;8.662;2022-10-16T09:57:52;9.73;;;6.38;;
40701;SDS011;26387;50.114;8.662;2022-10-16T10:00:18;11.52;;;5.72;;
40701;SDS011;26387;50.114;8.662;2022-10-16T10:02:44;9.95;;;4.80;;
40701;SDS011;26387;50.114;8.662;2022-10-16T10:05:27;8.43;;;4.75;;
40701;SDS011;26387;50.114;8.662;2022-10-16T10:07:55;7.10;;;4.38;;
40701;SDS011;26387;50.114;8.662;2022-10-16T10:10:31;10.10;;;4.10;;
40701;SDS011;26387;50.114;8.662;2022-10-16T10:12:57;6.32;;;3.22;;
40701;SDS011;26387;50.114;8.662;2022-10-16T10:15:24;8.88;;;3.58;;
40701;SDS011;26387;50.114;8.662;2022-10-16T10:17:55;5.18;;;2.80;;
40701;SDS011;26387;50.114;8.662;2022-10-16T10:20:31;6.95;;;3.25;;
40701;SDS011;26387;50.114;8.662;2022-10-16T10:22:59;4.22;;;3.42;;
40701;SDS011;26387;50.114;8.662;2022-10-16T10:30:44;9.13;;;3.38;;
40701;SDS011;26387;50.114;8.662;2022-10-16T10:35:45;8.65;;;4.10;;
40701;SDS011;26387;50.114;8.662;2022-10-16T10:45:55;4.15;;;3.05;;
40701;SDS011;26387;50.114;8.662;2022-10-16T10:51:58;5.50;;;3.55;;
40701;SDS011;26387;50.114;8.662;2022-10-16T10:56:47;7.07;;;4.50;;
40701;SDS011;26387;50.114;8.662;2022-10-16T11:02:15;7.82;;;4.78;;
40701;SDS011;26387;50.114;8.662;2022-10-16T11:07:19;8.60;;;6.60;;
40701;SDS011;26387;50.114;8.662;2022-10-16T11:09:56;10.23;;;8.45;;
40701;SDS011;26387;50.114;8.662;2022-10-16T11:12:31;10.43;;;8.80;;
40701;SDS011;26387;50.114;8.662;2022-10-16T11:15:16;11.30;;;9.20;;
40701;SDS011;26387;50.114;8.662;2022-10-16T11:17:48;15.73;;;9.68;;
40701;SDS011;26387;50.114;8.662;2022-10-16T11:20:26;13.50;;;9.75;;
40701;SDS011;26387;50.114;8.662;2022-10-16T11:23:05;13.35;;;9.63;;
40701;SDS011;26387;50.114;8.662;2022-10-16T11:25:56;12.95;;;9.52;;
40701;SDS011;26387;50.114;8.662;2022-10-16T11:28:27;13.30;;;9.60;;
40701;SDS011;26387;50.114;8.662;2022-10-16T11:36:50;13.25;;;9.40;;
40701;SDS011;26387;50.114;8.662;2022-10-16T11:39:24;9.90;;;8.57;;
40701;SDS011;26387;50.114;8.662;2022-10-16T11:47:09;9.68;;;8.20;;
40701;SDS011;26387;50.114;8.662;2022-10-16T11:49:49;10.48;;;8.50;;
40701;SDS011;26387;50.114;8.662;2022-10-16T11:52:23;10.20;;;7.45;;
40701;SDS011;26387;50.114;8.662;2022-10-16T11:54:59;11.50;;;7.50;;
40701;SDS011;26387;50.114;8.662;2022-10-16T11:57:35;10.13;;;7.28;;
40701;SDS011;26387;50.114;8.662;2022-10-16T12:00:17;17.90;;;9.65;;
40701;SDS011;26387;50.114;8.662;2022-10-16T12:02:51;11.75;;;7.25;;
40701;SDS011;26387;50.114;8.662;2022-10-16T12:05:23;7.65;;;6.00;;
40701;SDS011;26387;50.114;8.662;2022-10-16T12:10:40;7.35;;;6.18;;
40701;SDS011;26387;50.114;8.662;2022-10-16T12:15:51;7.28;;;5.70;;
40701;SDS011;26387;50.114;8.662;2022-10-16T12:18:21;7.57;;;5.43;;
40701;SDS011;26387;50.114;8.662;2022-10-16T12:20:54;14.32;;;8.85;;
40701;SDS011;26387;50.114;8.662;2022-10-16T12:23:23;6.95;;;3.67;;
40701;SDS011;26387;50.114;8.662;2022-10-16T12:25:54;6.00;;;3.45;;
40701;SDS011;26387;50.114;8.662;2022-10-16T12:28:21;9.95;;;3.42;;
40701;SDS011;26387;50.114;8.662;2022-10-16T12:30:57;4.28;;;3.15;;
40701;SDS011;26387;50.114;8.662;2022-10-16T12:33:34;7.50;;;3.13;;
40701;SDS011;26387;50.114;8.662;2022-10-16T12:36:02;6.07;;;2.90;;
40701;SDS011;26387;50.114;8.662;2022-10-16T12:38:30;3.35;;;2.75;;
40701;SDS011;26387;50.114;8.662;2022-10-16T12:41:05;2.63;;;2.15;;
40701;SDS011;26387;50.114;8.662;2022-10-16T12:43:37;4.15;;;2.50;;
40701;SDS011;26387;50.114;8.662;2022-10-16T12:46:50;1.98;;;1.83;;
40701;SDS011;26387;50.114;8.662;2022-10-16T12:48:51;5.57;;;2.10;;
40701;SDS011;26387;50.114;8.662;2022-10-16T12:54:09;10.23;;;2.35;;
40701;SDS011;26387;50.114;8.662;2022-10-16T12:56:46;3.40;;;2.50;;
40701;SDS011;26387;50.114;8.662;2022-10-16T13:04:47;5.32;;;2.58;;
40701;SDS011;26387;50.114;8.662;2022-10-16T13:20:25;2.83;;;1.67;;
40701;SDS011;26387;50.114;8.662;2022-10-16T13:23:01;4.72;;;1.98;;
40701;SDS011;26387;50.114;8.662;2022-10-16T13:25:41;3.58;;;1.98;;
40701;SDS011;26387;50.114;8.662;2022-10-16T13:28:11;4.95;;;2.03;;
40701;SDS011;26387;50.114;8.662;2022-10-16T13:30:41;3.47;;;1.77;;
40701;SDS011;26387;50.114;8.662;2022-10-16T13:33:50;2.75;;;1.67;;
40701;SDS011;26387;50.114;8.662;2022-10-16T13:35:57;3.53;;;2.10;;
40701;SDS011;26387;50.114;8.662;2022-10-16T13:38:27;2.35;;;1.80;;
40701;SDS011;26387;50.114;8.662;2022-10-16T13:43:19;3.03;;;1.88;;
40701;SDS011;26387;50.114;8.662;2022-10-16T13:45:56;4.25;;;1.70;;
40701;SDS011;26387;50.114;8.662;2022-10-16T13:48:23;3.38;;;1.70;;
40701;SDS011;26387;50.114;8.662;2022-10-16T13:53:44;2.13;;;1.40;;
40701;SDS011;26387;50.114;8.662;2022-10-16T13:56:12;3.33;;;1.70;;
40701;SDS011;26387;50.114;8.662;2022-10-16T13:58:38;3.42;;;1.70;;
40701;SDS011;26387;50.114;8.662;2022-10-16T14:01:05;3.80;;;1.70;;
40701;SDS011;26387;50.114;8.662;2022-10-16T14:03:32;2.85;;;2.15;;
40701;SDS011;26387;50.114;8.662;2022-10-16T14:06:00;5.43;;;2.25;;
40701;SDS011;26387;50.114;8.662;2022-10-16T14:08:27;3.17;;;1.90;;
40701;SDS011;26387;50.114;8.662;2022-10-16T14:10:55;6.97;;;2.17;;
40701;SDS011;26387;50.114;8.662;2022-10-16T14:13:43;3.30;;;2.08;;
40701;SDS011;26387;50.114;8.662;2022-10-16T14:16:08;2.40;;;2.00;;
40701;SDS011;26387;50.114;8.662;2022-10-16T14:18:35;3.28;;;2.13;;
40701;SDS011;26387;50.114;8.662;2022-10-16T14:21:03;2.53;;;2.20;;
40701;SDS011;26387;50.114;8.662;2022-10-16T14:23:30;3.17;;;2.20;;
40701;SDS011;26387;50.114;8.662;2022-10-16T14:26:11;4.40;;;2.22;;
40701;SDS011;26387;50.114;8.662;2022-10-16T14:28:42;4.80;;;2.35;;
40701;SDS011;26387;50.114;8.662;2022-10-16T14:33:51;4.20;;;2.40;;
40701;SDS011;26387;50.114;8.662;2022-10-16T14:36:16;5.22;;;2.50;;
40701;SDS011;26387;50.114;8.662;2022-10-16T14:41:20;4.85;;;2.90;;
40701;SDS011;26387;50.114;8.662;2022-10-16T14:43:49;4.13;;;3.10;;
40701;SDS011;26387;50.114;8.662;2022-10-16T14:46:19;3.47;;;2.67;;
40701;SDS011;26387;50.114;8.662;2022-10-16T14:48:51;3.72;;;2.47;;
40701;SDS011;26387;50.114;8.662;2022-10-16T14:51:24;4.13;;;2.97;;
40701;SDS011;26387;50.114;8.662;2022-10-16T14:53:50;4.80;;;3.63;;
40701;SDS011;26387;50.114;8.662;2022-10-16T14:56:18;4.68;;;3.45;;
40701;SDS011;26387;50.114;8.662;2022-10-16T14:58:46;5.28;;;3.10;;
40701;SDS011;26387;50.114;8.662;2022-10-16T15:01:11;4.68;;;2.78;;
40701;SDS011;26387;50.114;8.662;2022-10-16T15:03:38;6.97;;;3.10;;
40701;SDS011;26387;50.114;8.662;2022-10-16T15:06:04;6.40;;;2.90;;
40701;SDS011;26387;50.114;8.662;2022-10-16T15:08:36;6.07;;;2.83;;
40701;SDS011;26387;50.114;8.662;2022-10-16T15:11:01;5.65;;;2.85;;
40701;SDS011;26387;50.114;8.662;2022-10-16T15:13:27;4.82;;;2.78;;
40701;SDS011;26387;50.114;8.662;2022-10-16T15:15:53;6.65;;;2.83;;
40701;SDS011;26387;50.114;8.662;2022-10-16T15:18:18;7.85;;;3.17;;
40701;SDS011;26387;50.114;8.662;2022-10-16T15:20:50;4.90;;;2.83;;
40701;SDS011;26387;50.114;8.662;2022-10-16T15:23:17;5.35;;;2.95;;
40701;SDS011;26387;50.114;8.662;2022-10-16T15:25:47;7.53;;;3.63;;
40701;SDS011;26387;50.114;8.662;2022-10-16T15:28:14;8.52;;;2.90;;
40701;SDS011;26387;50.114;8.662;2022-10-16T15:30:41;5.25;;;3.00;;
40701;SDS011;26387;50.114;8.662;2022-10-16T15:33:15;3.72;;;2.80;;
40701;SDS011;26387;50.114;8.662;2022-10-16T15:35:42;4.25;;;2.75;;
40701;SDS011;26387;50.114;8.662;2022-10-16T15:38:11;7.45;;;2.67;;
40701;SDS011;26387;50.114;8.662;2022-10-16T15:40:38;5.40;;;3.17;;
40701;SDS011;26387;50.114;8.662;2022-10-16T15:43:04;5.10;;;3.00;;
40701;SDS011;26387;50.114;8.662;2022-10-16T15:45:30;3.58;;;2.80;;
40701;SDS011;26387;50.114;8.662;2022-10-16T15:47:56;6.50;;;3.65;;
40701;SDS011;26387;50.114;8.662;2022-10-16T15:50:21;6.53;;;3.20;;
40701;SDS011;26387;50.114;8.662;2022-10-16T15:52:47;3.88;;;3.10;;
40701;SDS011;26387;50.114;8.662;2022-10-16T15:55:13;6.63;;;3.13;;
40701;SDS011;26387;50.114;8.662;2022-10-16T15:57:39;6.50;;;3.63;;
40701;SDS011;26387;50.114;8.662;2022-10-16T16:00:07;13.75;;;3.70;;
40701;SDS011;26387;50.114;8.662;2022-10-16T16:02:37;6.43;;;3.88;;
40701;SDS011;26387;50.114;8.662;2022-10-16T16:05:03;8.00;;;4.30;;
40701;SDS011;26387;50.114;8.662;2022-10-16T16:07:33;9.48;;;4.53;;
40701;SDS011;26387;50.114;8.662;2022-10-16T16:09:59;8.40;;;3.90;;
40701;SDS011;26387;50.114;8.662;2022-10-16T16:12:25;5.38;;;3.67;;
40701;SDS011;26387;50.114;8.662;2022-10-16T16:14:50;8.23;;;3.90;;
40701;SDS011;26387;50.114;8.662;2022-10-16T16:17:16;9.27;;;4.25;;
40701;SDS011;26387;50.114;8.662;2022-10-16T16:19:43;8.85;;;3.83;;
40701;SDS011;26387;50.114;8.662;2022-10-16T16:22:08;7.90;;;4.07;;
40701;SDS011;26387;50.114;8.662;2022-10-16T16:24:34;6.10;;;3.88;;
40701;SDS011;26387;50.114;8.662;2022-10-16T16:26:59;7.55;;;4.47;;
40701;SDS011;26387;50.114;8.662;2022-10-16T16:29:25;11.32;;;4.28;;
40701;SDS011;26387;50.114;8.662;2022-10-16T16:31:50;11.93;;;4.72;;
40701;SDS011;26387;50.114;8.662;2022-10-16T16:34:22;8.85;;;4.40;;
40701;SDS011;26387;50.114;8.662;2022-10-16T16:36:50;7.72;;;4.47;;